Hadley, Pennsylvania
Current Conditions -  °F | °C
As of 11:01 PM on Thursday 18 Dec 2014 (Local Time) from KGKJ Reporting Station
Haze Haze  
Wind Chill: 21°   Ceiling: 400
Heat Index: 28°   Visibility: 2.5mi
Dew Point: 25°   Wind: 7mph
Humidity: 88%   Direction: 250°WSW
Pressure: 30.09"   Gusts: NA
Location:  41.41°N, 80.23°W
Report Text: KGKJ 190401Z AUTO 25006KT 2 1/2SM BR OVC004 M02/M04 A3009 RMK AO2 FZRAE0355 P0000 I1000 T10221039 TSNO
Loading
Personal Weather Stations






























Interactive Weather Map New forecast layout! Learn more

10-Day Weather Forecast

Advertisements
Track Severe Weather on mobile